Terminal Aerodrome Forecast
Issued by NWS

Home | Current Version | Previous Version | Text Only | Print | Product List | Glossary On
Versions: 1 2 3 4 5 6 7 8 9 10 11 12 13 14 15 16
000
FTUS45 KGJT 281449 AAB
TAFCNY
TAF AMD
KCNY 281449Z 2815/2912 33004KT P6SM SCT030 OVC060
     FM281800 36015G26KT P6SM VCSH BKN060
     FM282200 35022G30KT P6SM BKN080
     FM290500 32015G25KT P6SM FEW200=

USA.gov is the U.S. government's official web portal to all federal, state and local government web resources and services.